Terminal Aerodrome Forecast
Issued by NWS Wilmington, NC

Home | Current Version | Previous Version | Text Only | Print | Product List | Glossary On
Versions: 1 2 3 4 5 6 7 8 9 10 11 12 13 14 15
000
FTUS42 KILM 241801 CCA
TAFILM
TAF COR
KILM 241801Z 2418/2518 22010KT P6SM VCTS SCT030CB BKN060
     FM242100 21012KT P6SM VCTS SCT040CB BKN110
     FM250300 24005KT P6SM SCT020 SCT040
     FM251000 24004KT P6SM VCSH SCT020 BKN080 PROB30 2510/2513 4SM
      -TSRA OVC025CB=

USA.gov is the U.S. government's official web portal to all federal, state and local government web resources and services.